Forside
METAR-TAF:

METAR-TAF

Lufthavne :

Donegal, Irland

Breddekreds: 55-02-39N, længdekreds: 8-20-28W, højde: 9 m

Aktuelle vejr

Denne rapport blev lavet for 31 minutter siden, kl. 13:30 UTC
Vind 10 kt fra nordnordvest
Temperatur 8°C
Fugtighed 76%
Tryk 1037 hPa
Sigt 10 km eller mere
Spredte skyer i en højde af 3400 ft
Brudte skyer i en højde af 4400 ft

METAR: EIDL 311330Z 33010KT 9999 SCT034 BKN044 08/04 Q1037

Tid: 15:01 (14:01 UTC)

Vejrudsigter

Denne rapport blev lavet for 3 timer og 1 minutter siden, kl. 11:00 UTC
Foreløbig gælder fra 31 på 12 UTC til 31 på 21 UTC
Vind 10 kt fra nord
Sigt 10 km eller mere
Brudte skyer i en højde af 1600 ft

TAF: EIDL 311100Z 3112/3121 01010KT 9999 BKN016

Vejrobservationer og prognoser fra mere end 4000 lufthavne (METAR og TAF).

De gule og røde prikker repræsenterer de meteorologiske stationer.

Flyt musen over at se navnet på stationen.

Så klik over at se vejr observationer og prognoser.

At skifte det kort: Klik på de grønne knapper med et sort kors for at zoome ind; på den grønne knap med en bindestreg for at zoome ud; eller på de grønne pile for tilstødende kort.


METAR-TAF: